Time;durP1;ratioP1;P1;durP2;ratioP2;P2;SDS_P1;SDS_P2;PMS_P1;PMS_P2;Temp;Humidity;BMP_temperature;BMP_pressure;BME280_temperature;BME280_humidity;BME280_pressure;Samples;Min_cycle;Max_cycle;Signal;HPM_P1;HPM_P2
2024/01/30 00:01:42;;;;;;;5.93;4.07;;;15.20;85.10;;;;;;5014217;28;20038;-44
2024/01/30 00:04:08;;;;;;;4.72;3.53;;;15.30;85.20;;;;;;5014731;28;20029;-45
2024/01/30 00:06:33;;;;;;;6.47;4.00;;;15.20;85.10;;;;;;5014415;28;20499;-44
2024/01/30 00:08:59;;;;;;;6.85;4.20;;;15.20;85.90;;;;;;5014663;28;20108;-45
2024/01/30 00:11:28;;;;;;;5.50;3.78;;;15.20;85.20;;;;;;5014111;28;20026;-44
2024/01/30 00:13:57;;;;;;;6.75;4.57;;;15.20;85.10;;;;;;5014290;28;20384;-44
2024/01/30 00:16:26;;;;;;;5.60;3.72;;;15.20;85.20;;;;;;5014868;28;20026;-44
2024/01/30 00:18:52;;;;;;;5.63;3.85;;;15.20;85.10;;;;;;5015181;28;20025;-45
2024/01/30 00:21:19;;;;;;;7.00;4.10;;;15.20;85.20;;;;;;5014502;28;20148;-45
2024/01/30 00:23:45;;;;;;;5.70;3.88;;;15.20;85.20;;;;;;5013870;28;20026;-45
2024/01/30 00:26:11;;;;;;;7.07;4.38;;;15.10;85.10;;;;;;5013659;28;20125;-45
2024/01/30 00:28:37;;;;;;;5.82;3.60;;;15.00;85.10;;;;;;5013136;28;20101;-44
2024/01/30 00:31:03;;;;;;;6.57;4.13;;;15.00;85.10;;;;;;5013300;28;20072;-44
2024/01/30 00:33:29;;;;;;;6.63;3.88;;;15.00;85.20;;;;;;5013549;28;20510;-45
2024/01/30 00:35:54;;;;;;;6.10;3.80;;;14.90;85.20;;;;;;5014188;28;20029;-45
2024/01/30 00:38:20;;;;;;;5.93;3.80;;;14.80;86.00;;;;;;5013443;28;20105;-44
2024/01/30 00:40:45;;;;;;;7.88;4.32;;;14.80;85.50;;;;;;5013575;28;20109;-45
2024/01/30 00:43:11;;;;;;;7.07;4.10;;;14.70;85.60;;;;;;5013018;28;20392;-44
2024/01/30 00:45:37;;;;;;;5.00;3.70;;;14.70;85.80;;;;;;5013088;28;20033;-44
2024/01/30 00:48:03;;;;;;;6.18;4.05;;;14.50;85.90;;;;;;5013222;28;20076;-45
2024/01/30 00:50:28;;;;;;;6.68;3.47;;;14.50;86.10;;;;;;5012985;28;20092;-45
2024/01/30 00:52:54;;;;;;;5.75;3.78;;;14.40;86.30;;;;;;5013467;28;20053;-44
2024/01/30 00:55:19;;;;;;;5.75;3.30;;;14.30;86.50;;;;;;5012845;28;20052;-44
2024/01/30 00:57:45;;;;;;;5.57;3.67;;;14.20;86.70;;;;;;5012737;28;20053;-45
2024/01/30 01:00:12;;;;;;;5.60;3.80;;;14.10;86.90;;;;;;5011573;28;20061;-45
2024/01/30 01:02:39;;;;;;;6.63;4.00;;;14.00;87.10;;;;;;5012189;28;20105;-46
2024/01/30 01:05:05;;;;;;;5.20;3.40;;;13.90;87.30;;;;;;5012708;28;20099;-45
2024/01/30 01:07:30;;;;;;;6.88;3.90;;;13.90;87.60;;;;;;5012810;28;20403;-44
2024/01/30 01:09:57;;;;;;;6.07;3.55;;;13.80;87.80;;;;;;5012410;28;20085;-45
2024/01/30 01:12:22;;;;;;;5.90;3.72;;;13.70;88.00;;;;;;5012925;28;20388;-45
2024/01/30 01:14:48;;;;;;;5.30;3.35;;;13.60;88.30;;;;;;5013026;28;20014;-45
2024/01/30 01:17:14;;;;;;;6.88;3.47;;;13.50;88.50;;;;;;5012418;28;20029;-45
2024/01/30 01:19:39;;;;;;;7.28;4.00;;;13.40;88.80;;;;;;5011663;28;20705;-45
2024/01/30 01:22:05;;;;;;;5.47;3.58;;;13.30;89.00;;;;;;5012871;28;20026;-46
2024/01/30 01:24:34;;;;;;;5.93;3.65;;;13.20;89.10;;;;;;5011903;28;20045;-44
2024/01/30 01:26:59;;;;;;;7.25;3.85;;;13.20;89.40;;;;;;5013110;28;20022;-46
2024/01/30 01:29:28;;;;;;;5.47;3.40;;;13.10;89.60;;;;;;5012868;28;20030;-46
2024/01/30 01:31:57;;;;;;;6.53;3.70;;;13.10;89.90;;;;;;5013261;28;20044;-44
2024/01/30 01:34:24;;;;;;;5.15;3.20;;;12.90;90.00;;;;;;5013155;28;20026;-45
2024/01/30 01:36:50;;;;;;;5.78;3.60;;;12.90;90.10;;;;;;5013013;28;20101;-46
2024/01/30 01:39:16;;;;;;;6.20;3.58;;;12.80;90.10;;;;;;5012127;28;20108;-45
2024/01/30 01:41:41;;;;;;;5.47;3.60;;;12.80;90.30;;;;;;5012298;28;20029;-46
2024/01/30 01:44:08;;;;;;;5.35;3.42;;;12.70;90.30;;;;;;5011939;28;20084;-45
2024/01/30 01:46:34;;;;;;;5.18;3.50;;;12.60;90.40;;;;;;5012010;28;20053;-45
2024/01/30 01:49:04;;;;;;;6.10;3.55;;;12.60;90.50;;;;;;5012014;28;20030;-44
2024/01/30 01:51:33;;;;;;;7.38;3.78;;;12.50;90.60;;;;;;5011739;28;20029;-45
2024/01/30 01:54:02;;;;;;;6.05;3.80;;;12.40;90.70;;;;;;5011856;28;20030;-44
2024/01/30 01:56:29;;;;;;;5.25;3.53;;;12.40;90.70;;;;;;5011724;28;20026;-46
2024/01/30 01:58:55;;;;;;;4.78;3.15;;;12.30;90.80;;;;;;5012521;28;20022;-46
2024/01/30 02:01:21;;;;;;;5.45;3.83;;;12.30;90.90;;;;;;5012065;28;20488;-45
2024/01/30 02:03:47;;;;;;;5.47;3.15;;;12.20;91.00;;;;;;5011848;28;20025;-45
2024/01/30 02:06:16;;;;;;;5.72;3.47;;;12.20;91.10;;;;;;5011819;28;20145;-46
2024/01/30 02:08:42;;;;;;;5.07;3.55;;;12.10;91.10;;;;;;5011588;28;20056;-44
2024/01/30 02:11:10;;;;;;;5.63;3.17;;;12.10;91.20;;;;;;5012128;28;20076;-44
2024/01/30 02:13:36;;;;;;;5.55;3.47;;;12.00;91.20;;;;;;5011572;28;20100;-45
2024/01/30 02:16:01;;;;;;;6.22;3.58;;;12.00;91.30;;;;;;5011863;28;20033;-45
2024/01/30 02:18:27;;;;;;;6.05;3.22;;;11.90;91.40;;;;;;5011459;28;20030;-46
2024/01/30 02:20:55;;;;;;;4.70;3.22;;;11.90;91.40;;;;;;5011363;28;20100;-45
2024/01/30 02:23:27;;;;;;;5.22;3.00;;;11.90;91.50;;;;;;5011417;28;20033;-45
2024/01/30 02:25:53;;;;;;;5.82;3.20;;;11.80;91.60;;;;;;5013026;28;20037;-46
2024/01/30 02:28:19;;;;;;;4.40;2.95;;;11.70;91.60;;;;;;5011740;28;20088;-45
2024/01/30 02:30:46;;;;;;;6.13;3.55;;;11.70;91.70;;;;;;5012223;28;20030;-45
2024/01/30 02:33:12;;;;;;;5.90;3.80;;;11.70;91.70;;;;;;5012702;28;20022;-46
2024/01/30 02:35:38;;;;;;;6.25;3.40;;;11.60;91.80;;;;;;5012147;28;20025;-45
2024/01/30 02:38:04;;;;;;;5.45;3.50;;;11.60;91.90;;;;;;5012298;28;20022;-46
2024/01/30 02:40:30;;;;;;;4.80;3.00;;;11.60;91.90;;;;;;5012384;28;20101;-46
2024/01/30 02:42:56;;;;;;;5.90;3.50;;;11.50;92.00;;;;;;5011925;28;20100;-45
2024/01/30 02:45:22;;;;;;;4.90;3.05;;;11.50;92.00;;;;;;5011801;28;20038;-46
2024/01/30 02:47:47;;;;;;;7.10;3.28;;;11.40;92.00;;;;;;5011327;28;20117;-45
2024/01/30 02:50:14;;;;;;;6.30;3.30;;;11.40;92.10;;;;;;5011575;28;20104;-45
2024/01/30 02:52:40;;;;;;;4.90;3.33;;;11.40;92.20;;;;;;5012311;28;20022;-46
2024/01/30 02:55:06;;;;;;;4.93;2.90;;;11.40;92.20;;;;;;5012491;28;20049;-46
2024/01/30 02:57:32;;;;;;;5.97;3.10;;;11.30;92.20;;;;;;5012191;28;20030;-45
2024/01/30 02:59:57;;;;;;;4.47;3.05;;;11.20;92.30;;;;;;5012744;28;20030;-45
2024/01/30 03:02:23;;;;;;;4.97;3.10;;;11.20;92.30;;;;;;5014343;28;20476;-46
2024/01/30 03:04:49;;;;;;;5.05;3.38;;;11.20;92.40;;;;;;5015555;28;20037;-45
2024/01/30 03:07:14;;;;;;;5.13;3.20;;;11.20;92.40;;;;;;5015797;28;20125;-45
2024/01/30 03:09:45;;;;;;;5.30;2.83;;;11.20;92.50;;;;;;5015182;28;20506;-45
2024/01/30 03:12:10;;;;;;;5.32;3.03;;;11.10;92.50;;;;;;5015609;28;20071;-43
2024/01/30 03:14:36;;;;;;;5.60;3.28;;;11.10;92.50;;;;;;5014618;28;20100;-45
2024/01/30 03:17:02;;;;;;;6.75;3.38;;;11.00;92.60;;;;;;5015242;28;20025;-45
2024/01/30 03:19:28;;;;;;;5.03;3.05;;;11.10;92.60;;;;;;5015448;28;20030;-44
2024/01/30 03:21:53;;;;;;;4.07;3.03;;;11.00;92.60;;;;;;5016066;28;20029;-44
2024/01/30 03:24:19;;;;;;;4.78;3.10;;;11.00;92.70;;;;;;5015141;28;20391;-45
2024/01/30 03:26:45;;;;;;;4.93;2.97;;;11.00;92.70;;;;;;5015136;28;20030;-46
2024/01/30 03:29:10;;;;;;;3.55;2.58;;;11.00;92.80;;;;;;5015363;28;20033;-44
2024/01/30 03:31:36;;;;;;;5.75;2.90;;;10.90;92.80;;;;;;5015482;28;20080;-45
2024/01/30 03:34:02;;;;;;;5.53;3.20;;;10.90;92.80;;;;;;5015359;28;20026;-46
2024/01/30 03:36:27;;;;;;;4.70;2.78;;;10.90;92.80;;;;;;5014336;28;20494;-46
2024/01/30 03:38:53;;;;;;;4.57;2.72;;;10.90;92.90;;;;;;5014280;28;20029;-46
2024/01/30 03:41:19;;;;;;;4.35;3.17;;;10.80;92.90;;;;;;5015138;28;20034;-45
2024/01/30 03:43:44;;;;;;;5.25;3.03;;;10.80;93.00;;;;;;5014217;28;20029;-44
2024/01/30 03:46:12;;;;;;;4.63;2.65;;;10.80;93.00;;;;;;5014917;28;20030;-45
2024/01/30 03:48:39;;;;;;;4.28;2.80;;;10.70;93.00;;;;;;5013997;28;20029;-46
2024/01/30 03:51:05;;;;;;;3.60;2.63;;;10.80;93.10;;;;;;5015097;28;20041;-45
2024/01/30 03:53:31;;;;;;;5.95;3.00;;;10.70;93.10;;;;;;5014334;28;20026;-45
2024/01/30 03:55:57;;;;;;;4.38;2.53;;;10.70;93.10;;;;;;5013913;28;20387;-45
2024/01/30 03:58:23;;;;;;;4.05;2.70;;;10.70;93.10;;;;;;5013753;28;20022;-46
2024/01/30 04:00:48;;;;;;;3.50;2.78;;;10.70;93.20;;;;;;5014737;28;20044;-45
2024/01/30 04:03:17;;;;;;;4.25;2.63;;;10.60;93.20;;;;;;5014541;28;20033;-45
2024/01/30 04:05:43;;;;;;;4.78;2.60;;;10.60;93.20;;;;;;5014141;28;20025;-46
2024/01/30 04:08:09;;;;;;;5.05;3.00;;;10.60;93.20;;;;;;5014048;28;20029;-45
2024/01/30 04:10:34;;;;;;;4.28;2.33;;;10.60;93.30;;;;;;5013868;28;20062;-46
2024/01/30 04:13:00;;;;;;;3.38;2.67;;;10.60;93.30;;;;;;5014064;28;20080;-46
2024/01/30 04:15:26;;;;;;;5.07;2.70;;;10.50;93.30;;;;;;5013639;28;20076;-45
2024/01/30 04:17:52;;;;;;;4.55;2.72;;;10.50;93.30;;;;;;5013964;28;20026;-45
2024/01/30 04:20:18;;;;;;;5.28;2.80;;;10.50;93.30;;;;;;5013867;28;20443;-46
2024/01/30 04:22:45;;;;;;;4.47;2.85;;;10.50;93.30;;;;;;5013846;28;20361;-46
2024/01/30 04:25:11;;;;;;;4.43;2.65;;;10.50;93.40;;;;;;5014268;28;20048;-46
2024/01/30 04:27:37;;;;;;;4.10;2.67;;;10.50;93.40;;;;;;5013364;28;20038;-45
2024/01/30 04:30:04;;;;;;;3.97;2.63;;;10.40;93.40;;;;;;5012018;28;20064;-44
2024/01/30 04:32:30;;;;;;;4.38;2.40;;;10.40;93.50;;;;;;5013896;28;20030;-44
2024/01/30 04:34:56;;;;;;;3.80;2.47;;;10.40;93.50;;;;;;5013104;28;20106;-45
2024/01/30 04:37:21;;;;;;;3.92;2.53;;;10.40;93.50;;;;;;5013462;28;20048;-45
2024/01/30 04:39:47;;;;;;;4.65;2.80;;;10.40;93.50;;;;;;5013222;28;20029;-46
2024/01/30 04:42:13;;;;;;;4.38;2.70;;;10.30;93.50;;;;;;5013520;28;20036;-46
2024/01/30 04:44:38;;;;;;;4.13;2.50;;;10.40;93.60;;;;;;5013080;28;20026;-46
2024/01/30 04:47:05;;;;;;;4.07;2.58;;;10.30;93.60;;;;;;5013501;28;20061;-44
2024/01/30 04:49:32;;;;;;;4.07;2.60;;;10.30;93.60;;;;;;5013665;28;20053;-46
2024/01/30 04:51:57;;;;;;;3.40;2.20;;;10.30;93.60;;;;;;5013002;28;20018;-45
2024/01/30 04:54:23;;;;;;;2.90;2.30;;;10.30;93.60;;;;;;5013028;28;20026;-46
2024/01/30 04:56:49;;;;;;;3.83;2.38;;;10.30;93.70;;;;;;5013719;28;20107;-44
2024/01/30 04:59:14;;;;;;;4.20;2.50;;;10.30;93.70;;;;;;5012707;28;20113;-46
2024/01/30 05:01:40;;;;;;;3.10;2.42;;;10.30;93.70;;;;;;5012710;28;20088;-45
2024/01/30 05:04:09;;;;;;;5.00;2.97;;;10.30;93.70;;;;;;5012595;28;20026;-45
2024/01/30 05:06:34;;;;;;;3.45;2.40;;;10.20;93.70;;;;;;5012581;28;20480;-45
2024/01/30 05:09:00;;;;;;;3.38;2.30;;;10.20;93.70;;;;;;5012721;28;20053;-45
2024/01/30 05:11:25;;;;;;;4.88;2.72;;;10.20;93.80;;;;;;5012669;28;20030;-46
2024/01/30 05:13:51;;;;;;;3.75;2.45;;;10.20;93.80;;;;;;5012604;28;20380;-45
2024/01/30 05:16:16;;;;;;;4.32;2.75;;;10.20;93.80;;;;;;5012932;28;20105;-44
2024/01/30 05:18:42;;;;;;;4.38;2.40;;;10.20;93.90;;;;;;5012334;28;20013;-46
2024/01/30 05:21:08;;;;;;;3.63;2.65;;;10.10;93.80;;;;;;5012594;28;20026;-46
2024/01/30 05:23:34;;;;;;;4.38;2.58;;;10.20;93.90;;;;;;5012889;28;20062;-45
2024/01/30 05:26:00;;;;;;;4.20;2.63;;;10.20;93.90;;;;;;5013040;28;20048;-46
2024/01/30 05:28:26;;;;;;;4.95;2.60;;;10.10;93.90;;;;;;5012952;28;20511;-46
2024/01/30 05:30:52;;;;;;;3.58;2.30;;;10.10;93.90;;;;;;5013380;28;20025;-45
2024/01/30 05:33:17;;;;;;;4.18;2.50;;;10.10;93.90;;;;;;5012897;28;20510;-46
2024/01/30 05:35:43;;;;;;;4.80;2.85;;;10.10;93.90;;;;;;5012111;28;20025;-46
2024/01/30 05:38:09;;;;;;;5.25;3.22;;;10.10;93.90;;;;;;5012120;28;20025;-46
2024/01/30 05:40:34;;;;;;;5.90;2.83;;;10.10;93.90;;;;;;5012908;28;20046;-45
2024/01/30 05:43:01;;;;;;;5.95;3.20;;;10.10;94.00;;;;;;5012297;28;20034;-46
2024/01/30 05:45:27;;;;;;;4.50;2.90;;;10.00;93.90;;;;;;5011925;28;20496;-45
2024/01/30 05:47:53;;;;;;;4.22;2.58;;;10.00;94.00;;;;;;5012000;28;20116;-45
2024/01/30 05:50:19;;;;;;;4.13;2.70;;;10.00;94.00;;;;;;5012009;28;20026;-44
2024/01/30 05:52:45;;;;;;;5.35;2.72;;;10.00;94.00;;;;;;5012250;28;20026;-44
2024/01/30 05:55:11;;;;;;;4.18;3.08;;;10.00;94.00;;;;;;5011912;28;20291;-45
2024/01/30 05:57:37;;;;;;;5.00;3.13;;;10.00;94.00;;;;;;5012696;28;20081;-44
2024/01/30 06:00:05;;;;;;;4.93;2.75;;;10.00;94.00;;;;;;5011978;28;20117;-48
2024/01/30 06:02:31;;;;;;;3.88;2.67;;;10.00;94.10;;;;;;5012020;28;20052;-46
2024/01/30 06:04:56;;;;;;;4.53;2.88;;;10.00;94.10;;;;;;5011664;28;20495;-45
2024/01/30 06:07:22;;;;;;;4.75;2.90;;;9.90;94.40;;;;;;5012089;28;20041;-45
2024/01/30 06:09:48;;;;;;;4.55;2.90;;;10.00;94.30;;;;;;5012312;28;20021;-44
2024/01/30 06:12:13;;;;;;;4.40;2.70;;;9.90;94.10;;;;;;5012687;28;20060;-44
2024/01/30 06:14:39;;;;;;;4.75;2.92;;;9.90;94.10;;;;;;5011331;28;20026;-45
2024/01/30 06:17:06;;;;;;;4.65;2.90;;;9.90;94.10;;;;;;5011690;28;20022;-44
2024/01/30 06:19:31;;;;;;;4.32;2.75;;;9.90;94.10;;;;;;5011567;28;20316;-44
2024/01/30 06:21:57;;;;;;;4.25;2.63;;;9.90;94.20;;;;;;5011979;28;20109;-44
2024/01/30 06:24:23;;;;;;;4.55;2.80;;;9.90;94.20;;;;;;5011690;28;20460;-44
2024/01/30 06:26:48;;;;;;;4.60;2.47;;;9.90;94.20;;;;;;5011476;28;20028;-44
2024/01/30 06:29:14;;;;;;;5.57;3.10;;;9.90;94.20;;;;;;5011288;28;20034;-45
2024/01/30 06:31:43;;;;;;;4.85;2.80;;;9.90;94.20;;;;;;5011406;28;20101;-44
2024/01/30 06:34:11;;;;;;;5.55;2.95;;;9.90;94.20;;;;;;5012373;28;20380;-45
2024/01/30 06:36:36;;;;;;;6.05;3.20;;;9.90;94.20;;;;;;5012426;28;20049;-45
2024/01/30 06:39:03;;;;;;;5.57;3.00;;;9.90;94.30;;;;;;5015592;28;20069;-45
2024/01/30 06:41:28;;;;;;;4.93;3.15;;;9.80;94.20;;;;;;5015979;28;20369;-45
2024/01/30 06:43:54;;;;;;;5.10;3.15;;;9.80;94.20;;;;;;5015168;28;20033;-45
2024/01/30 06:46:19;;;;;;;5.60;3.30;;;9.80;94.30;;;;;;5016672;28;20400;-44
2024/01/30 06:48:45;;;;;;;5.13;3.10;;;9.80;94.30;;;;;;5015146;28;20018;-45
2024/01/30 06:51:12;;;;;;;5.65;3.08;;;9.80;94.30;;;;;;5015943;28;20103;-44
2024/01/30 06:53:38;;;;;;;7.57;3.30;;;9.80;94.30;;;;;;5015575;28;20029;-45
2024/01/30 06:56:03;;;;;;;3.70;2.65;;;9.80;94.30;;;;;;5013796;28;20017;-44
2024/01/30 06:58:29;;;;;;;5.45;3.03;;;9.80;94.40;;;;;;5014940;28;20058;-44
2024/01/30 07:00:55;;;;;;;4.53;3.05;;;9.80;94.40;;;;;;5015569;28;20540;-44
2024/01/30 07:03:21;;;;;;;4.13;2.83;;;9.70;94.50;;;;;;5015354;28;20026;-45
2024/01/30 07:05:47;;;;;;;5.80;3.25;;;9.80;94.50;;;;;;5015771;28;20025;-43
2024/01/30 07:08:13;;;;;;;5.70;3.20;;;9.80;94.90;;;;;;5015775;28;20022;-44
2024/01/30 07:10:38;;;;;;;5.90;3.17;;;9.80;94.60;;;;;;5014988;28;20041;-44
2024/01/30 07:13:05;;;;;;;5.68;3.60;;;9.80;94.60;;;;;;5015602;28;20029;-44
2024/01/30 07:15:31;;;;;;;5.53;3.38;;;9.80;94.60;;;;;;5015573;28;20034;-44
2024/01/30 07:17:57;;;;;;;4.38;3.10;;;9.80;94.70;;;;;;5015333;28;20110;-44
2024/01/30 07:20:22;;;;;;;4.10;2.70;;;9.90;94.70;;;;;;5015911;28;20022;-45
2024/01/30 07:22:48;;;;;;;4.07;2.72;;;9.90;94.60;;;;;;5015306;28;20380;-45
2024/01/30 07:25:13;;;;;;;4.38;2.88;;;9.90;94.60;;;;;;5014760;28;20033;-45
2024/01/30 07:27:39;;;;;;;6.13;3.25;;;10.00;94.60;;;;;;5015332;28;20361;-44
2024/01/30 07:30:06;;;;;;;6.15;3.20;;;10.10;94.60;;;;;;5014817;28;20052;-44
2024/01/30 07:32:31;;;;;;;6.70;2.97;;;10.10;94.60;;;;;;5016308;28;20017;-45
2024/01/30 07:34:57;;;;;;;5.75;2.72;;;10.10;94.50;;;;;;5014899;28;20032;-44
2024/01/30 07:37:23;;;;;;;5.07;3.10;;;10.20;94.50;;;;;;5014208;28;20030;-44
2024/01/30 07:39:48;;;;;;;4.05;2.55;;;10.30;94.40;;;;;;5014444;28;20030;-45
2024/01/30 07:42:14;;;;;;;4.70;2.88;;;10.30;94.30;;;;;;5015729;28;20440;-44
2024/01/30 07:44:40;;;;;;;5.47;3.05;;;10.40;94.30;;;;;;5014999;28;20026;-44
2024/01/30 07:47:05;;;;;;;4.97;2.58;;;10.40;94.20;;;;;;5014645;28;20022;-45
2024/01/30 07:49:32;;;;;;;4.47;2.80;;;10.50;94.10;;;;;;5014987;28;20495;-45
2024/01/30 07:51:58;;;;;;;3.33;2.63;;;10.60;94.10;;;;;;5014869;28;20040;-44
2024/01/30 07:54:23;;;;;;;5.25;3.22;;;10.60;94.00;;;;;;5013897;28;20026;-45
2024/01/30 07:56:49;;;;;;;3.97;2.83;;;10.80;93.90;;;;;;5013919;28;20465;-45
2024/01/30 07:59:15;;;;;;;4.00;2.80;;;10.80;93.80;;;;;;5013941;28;20060;-45
2024/01/30 08:01:41;;;;;;;4.25;2.80;;;10.90;93.70;;;;;;5015007;28;20030;-45
2024/01/30 08:04:06;;;;;;;4.05;2.67;;;11.00;93.70;;;;;;5015252;28;20160;-44
2024/01/30 08:06:32;;;;;;;4.55;2.95;;;11.00;93.60;;;;;;5014652;28;20492;-44
2024/01/30 08:08:59;;;;;;;4.68;2.75;;;11.10;93.50;;;;;;5014337;28;20411;-45
2024/01/30 08:11:26;;;;;;;4.78;2.88;;;11.20;93.40;;;;;;5013844;28;20048;-45
2024/01/30 08:13:55;;;;;;;5.13;2.50;;;11.20;93.30;;;;;;5013929;28;20026;-44
2024/01/30 08:16:20;;;;;;;4.85;2.92;;;11.40;93.30;;;;;;5013509;28;20026;-45
2024/01/30 08:18:46;;;;;;;4.85;2.90;;;11.40;93.20;;;;;;5014116;28;20036;-45
2024/01/30 08:21:12;;;;;;;5.60;2.78;;;11.50;93.10;;;;;;5013774;28;20022;-46
2024/01/30 08:23:40;;;;;;;4.05;2.75;;;11.50;93.00;;;;;;5013252;28;20487;-45
2024/01/30 08:26:06;;;;;;;4.70;2.95;;;11.70;92.90;;;;;;5013418;28;20068;-45
2024/01/30 08:28:31;;;;;;;5.05;2.90;;;11.70;92.80;;;;;;5014643;28;20054;-45
2024/01/30 08:30:58;;;;;;;4.00;2.65;;;11.80;92.70;;;;;;5013891;28;20503;-44
2024/01/30 08:33:24;;;;;;;4.05;2.58;;;11.90;92.70;;;;;;5013299;28;20032;-46
2024/01/30 08:35:50;;;;;;;4.82;3.00;;;11.90;92.60;;;;;;5014442;28;20025;-46
2024/01/30 08:38:15;;;;;;;4.40;2.58;;;12.00;92.50;;;;;;5013979;28;20025;-44
2024/01/30 08:40:41;;;;;;;5.15;2.92;;;12.00;92.40;;;;;;5013231;28;20026;-44
2024/01/30 08:43:08;;;;;;;5.18;3.00;;;12.10;92.30;;;;;;5013891;28;20033;-45
2024/01/30 08:45:33;;;;;;;3.40;2.42;;;12.20;92.20;;;;;;5012970;28;20388;-44
2024/01/30 08:47:59;;;;;;;5.05;2.80;;;12.30;92.10;;;;;;5014024;28;20033;-44
2024/01/30 08:50:25;;;;;;;4.82;3.13;;;12.30;92.00;;;;;;5014588;28;20105;-45
2024/01/30 08:52:50;;;;;;;4.95;3.00;;;12.40;92.00;;;;;;5012809;28;20030;-45
2024/01/30 08:55:16;;;;;;;3.45;2.47;;;12.50;91.90;;;;;;5012794;28;20026;-45
2024/01/30 08:57:41;;;;;;;4.15;2.50;;;12.50;91.80;;;;;;5013393;28;20026;-45
2024/01/30 09:00:09;;;;;;;4.03;2.70;;;12.60;91.70;;;;;;5012032;28;20052;-44
2024/01/30 09:02:35;;;;;;;5.20;3.03;;;12.70;91.70;;;;;;5013150;28;20030;-45
2024/01/30 09:05:00;;;;;;;4.13;2.47;;;12.80;91.60;;;;;;5012736;28;20025;-46
2024/01/30 09:07:26;;;;;;;4.68;2.80;;;12.80;91.50;;;;;;5013033;28;20034;-44
2024/01/30 09:09:52;;;;;;;5.70;3.33;;;12.90;91.40;;;;;;5012741;28;20069;-44
2024/01/30 09:12:17;;;;;;;9.32;4.28;;;13.00;91.40;;;;;;5012952;28;20109;-44
2024/01/30 09:14:43;;;;;;;6.90;4.22;;;13.10;90.90;;;;;;5013807;28;20025;-44
2024/01/30 09:17:09;;;;;;;7.22;4.05;;;13.10;90.50;;;;;;5013235;28;20026;-41
2024/01/30 09:19:34;;;;;;;7.72;4.15;;;13.10;90.40;;;;;;5012366;28;20026;-43
2024/01/30 09:22:00;;;;;;;6.60;3.80;;;13.20;90.30;;;;;;5012283;28;20041;-42
2024/01/30 09:24:27;;;;;;;6.45;3.70;;;13.20;90.30;;;;;;5012850;28;20125;-44
2024/01/30 09:26:52;;;;;;;6.85;4.10;;;13.30;90.30;;;;;;5012875;28;20022;-42
2024/01/30 09:29:18;;;;;;;8.13;4.07;;;13.30;90.20;;;;;;5012144;28;20041;-44
2024/01/30 09:31:45;;;;;;;6.32;4.03;;;13.40;90.20;;;;;;5012984;28;20161;-41
2024/01/30 09:34:11;;;;;;;10.50;4.20;;;13.50;90.10;;;;;;5012681;28;20036;-41
2024/01/30 09:36:36;;;;;;;6.70;3.38;;;13.50;90.10;;;;;;5012772;28;20018;-43
2024/01/30 09:39:03;;;;;;;5.63;3.40;;;13.60;90.00;;;;;;5012052;28;20030;-44
2024/01/30 09:41:32;;;;;;;6.50;3.78;;;13.60;89.90;;;;;;5012263;28;20026;-41
2024/01/30 09:43:57;;;;;;;6.68;3.50;;;13.70;89.80;;;;;;5012105;28;20106;-44
2024/01/30 09:46:30;;;;;;;6.35;3.58;;;13.70;89.70;;;;;;5012347;28;20117;-44
2024/01/30 09:48:57;;;;;;;8.48;3.78;;;13.80;89.50;;;;;;5012879;28;20033;-43
2024/01/30 09:51:24;;;;;;;6.90;4.20;;;13.80;89.40;;;;;;5012182;28;20033;-43
2024/01/30 09:53:50;;;;;;;6.22;3.88;;;13.90;89.30;;;;;;5012063;28;20022;-42
2024/01/30 09:56:16;;;;;;;7.55;3.88;;;13.90;89.20;;;;;;5011985;28;20380;-44
2024/01/30 09:58:42;;;;;;;6.25;3.88;;;13.90;89.10;;;;;;5012686;28;20045;-43
2024/01/30 10:01:08;;;;;;;8.07;3.63;;;13.90;89.00;;;;;;5013079;28;20486;-44
2024/01/30 10:03:34;;;;;;;7.50;3.67;;;14.00;88.90;;;;;;5012682;28;20029;-44
2024/01/30 10:06:00;;;;;;;6.80;3.53;;;14.00;88.80;;;;;;5012659;28;20026;-43
2024/01/30 10:08:27;;;;;;;6.35;3.85;;;14.10;88.80;;;;;;5011893;28;20033;-44
2024/01/30 10:10:53;;;;;;;5.72;3.60;;;14.10;88.70;;;;;;5011498;28;20449;-43
2024/01/30 10:13:18;;;;;;;5.97;3.97;;;14.10;88.50;;;;;;5011944;28;20058;-42
2024/01/30 10:15:45;;;;;;;6.55;3.80;;;14.10;88.50;;;;;;5012056;28;20109;-44
2024/01/30 10:18:11;;;;;;;5.72;3.63;;;14.10;88.40;;;;;;5011697;28;20021;-43
2024/01/30 10:20:37;;;;;;;6.75;3.17;;;14.20;88.40;;;;;;5011821;28;20029;-44
2024/01/30 10:23:03;;;;;;;5.78;3.60;;;14.20;88.40;;;;;;5011754;28;20034;-44
2024/01/30 10:25:31;;;;;;;5.13;3.47;;;14.20;88.40;;;;;;5012762;28;20100;-44
2024/01/30 10:27:57;;;;;;;5.70;3.53;;;14.20;88.40;;;;;;5011469;28;20029;-44
2024/01/30 10:30:24;;;;;;;4.93;2.90;;;14.20;88.30;;;;;;5012328;28;20022;-44
2024/01/30 10:32:50;;;;;;;7.57;3.60;;;14.20;88.30;;;;;;5011800;28;20021;-42
2024/01/30 10:35:15;;;;;;;4.85;3.10;;;14.20;88.20;;;;;;5011733;28;20026;-42
2024/01/30 10:37:43;;;;;;;5.00;3.08;;;14.30;88.20;;;;;;5011453;28;20075;-44
2024/01/30 10:40:13;;;;;;;4.78;3.33;;;14.30;88.20;;;;;;5011611;28;20033;-43
2024/01/30 10:42:44;;;;;;;7.05;3.78;;;14.30;88.20;;;;;;5011442;28;20393;-44
2024/01/30 10:45:15;;;;;;;5.68;3.30;;;14.40;89.00;;;;;;5011338;28;20050;-43
2024/01/30 10:47:46;;;;;;;4.53;3.22;;;14.40;88.20;;;;;;5011263;28;20569;-44
2024/01/30 10:50:13;;;;;;;6.50;3.30;;;14.40;88.20;;;;;;5012292;28;20022;-44
2024/01/30 10:52:42;;;;;;;5.18;3.25;;;14.40;88.10;;;;;;5012288;28;20021;-44
2024/01/30 10:55:08;;;;;;;5.60;3.40;;;14.40;88.00;;;;;;5012723;28;20543;-44
2024/01/30 10:57:37;;;;;;;5.13;3.10;;;14.50;88.00;;;;;;5012053;28;20443;-45
2024/01/30 11:00:15;;;;;;;4.95;3.00;;;14.50;88.00;;;;;;5011750;28;20041;-41
2024/01/30 11:02:43;;;;;;;5.05;3.10;;;14.50;87.80;;;;;;5027076;28;20116;-42
2024/01/30 11:05:09;;;;;;;4.72;3.15;;;14.60;87.80;;;;;;5011967;28;20010;-42
2024/01/30 11:07:35;;;;;;;5.50;3.20;;;14.60;87.70;;;;;;5011322;28;20026;-44
2024/01/30 11:10:05;;;;;;;5.53;3.20;;;14.70;87.60;;;;;;5012005;28;20546;-44
2024/01/30 11:12:35;;;;;;;6.43;2.97;;;14.70;87.50;;;;;;5011803;28;20101;-44
2024/01/30 11:15:08;;;;;;;5.35;3.20;;;14.70;87.40;;;;;;5011796;28;20053;-44
2024/01/30 11:17:49;;;;;;;5.13;3.00;;;14.80;87.30;;;;;;5012365;28;20022;-44
2024/01/30 11:20:25;;;;;;;4.85;3.13;;;14.80;87.20;;;;;;5012268;28;20504;-44
2024/01/30 11:22:54;;;;;;;5.15;2.90;;;14.80;87.10;;;;;;5012318;28;20038;-44
2024/01/30 11:25:21;;;;;;;5.15;3.30;;;14.90;87.10;;;;;;5016411;28;20570;-43
2024/01/30 11:27:49;;;;;;;4.78;3.22;;;14.90;87.00;;;;;;5014570;28;20026;-44
2024/01/30 11:30:27;;;;;;;5.43;2.97;;;14.90;86.90;;;;;;5014480;28;20076;-44
2024/01/30 11:33:04;;;;;;;5.05;3.13;;;14.90;86.70;;;;;;5014483;28;20496;-45
2024/01/30 11:35:34;;;;;;;5.80;3.03;;;15.00;86.70;;;;;;5015429;28;20377;-43
2024/01/30 11:38:01;;;;;;;4.72;3.03;;;15.00;86.70;;;;;;5015742;28;20106;-42
2024/01/30 11:40:31;;;;;;;5.13;3.08;;;15.00;86.60;;;;;;5014280;28;20033;-43
2024/01/30 11:42:58;;;;;;;4.20;2.70;;;15.00;86.50;;;;;;5014667;28;20053;-44
2024/01/30 11:45:24;;;;;;;4.80;2.92;;;15.00;86.40;;;;;;5014696;28;20025;-44
2024/01/30 11:47:50;;;;;;;5.22;2.90;;;15.10;86.40;;;;;;5015002;28;20038;-44
2024/01/30 11:50:16;;;;;;;4.90;3.10;;;15.10;86.40;;;;;;5014346;28;20062;-43
2024/01/30 11:52:43;;;;;;;5.25;2.88;;;15.10;86.30;;;;;;5014054;28;20472;-43
2024/01/30 11:55:09;;;;;;;4.88;2.95;;;15.10;86.30;;;;;;5014290;28;20077;-44
2024/01/30 11:57:36;;;;;;;4.43;3.17;;;15.10;86.30;;;;;;5013920;28;20060;-44
2024/01/30 12:00:10;;;;;;;4.38;3.00;;;15.10;86.20;;;;;;5014837;28;20037;-44
2024/01/30 12:02:40;;;;;;;6.25;3.30;;;15.10;86.20;;;;;;5014389;28;20966;-44
2024/01/30 12:05:06;;;;;;;5.57;3.35;;;15.10;86.20;;;;;;5014873;28;20068;-43
2024/01/30 12:07:36;;;;;;;6.13;3.13;;;15.10;86.10;;;;;;5013700;28;20129;-43
2024/01/30 12:10:01;;;;;;;4.68;2.88;;;15.20;86.20;;;;;;5013612;28;20037;-45
2024/01/30 12:12:28;;;;;;;5.03;3.15;;;15.20;86.10;;;;;;5013991;28;20129;-44
2024/01/30 12:14:55;;;;;;;5.10;2.92;;;15.20;86.10;;;;;;5013469;28;20026;-43
2024/01/30 12:17:31;;;;;;;5.53;3.20;;;15.20;86.10;;;;;;5014226;28;20045;-43
2024/01/30 12:20:08;;;;;;;4.72;2.85;;;15.20;86.00;;;;;;5014300;28;20530;-44
2024/01/30 12:22:40;;;;;;;4.50;2.97;;;15.30;86.00;;;;;;5013560;28;20029;-43
2024/01/30 12:25:08;;;;;;;5.22;2.92;;;15.20;86.00;;;;;;5013368;28;20459;-42
2024/01/30 12:27:34;;;;;;;4.50;2.85;;;15.30;86.00;;;;;;5013317;28;20037;-43
2024/01/30 12:30:00;;;;;;;4.68;2.65;;;15.30;85.90;;;;;;5013352;28;20034;-43
2024/01/30 12:32:26;;;;;;;4.55;2.88;;;15.30;85.90;;;;;;5013413;28;20081;-44
2024/01/30 12:34:56;;;;;;;3.70;2.67;;;15.30;85.80;;;;;;5013139;28;20472;-43
2024/01/30 12:37:22;;;;;;;4.53;2.70;;;15.30;85.80;;;;;;5013903;28;20032;-42
2024/01/30 12:39:48;;;;;;;5.07;2.65;;;15.30;85.70;;;;;;5013227;28;20030;-44
2024/01/30 12:42:15;;;;;;;4.53;2.50;;;15.30;85.70;;;;;;5013616;28;20036;-45
2024/01/30 12:44:42;;;;;;;5.75;2.35;;;15.30;85.90;;;;;;5014009;28;20153;-43